| time (UTC) | temp F | wind direction | speed MPH | gust MPH | rain 1hr in | rain 24hr in | rain mn in | humidity % | barometer mb |
| 20260508034519 | 68 | 360 | 11.0 | 15.0 | 0.00 | 0.00 | 0.00 | 58 | 1014.3 |
| 20260508033021 | 68 | 360 | 10.0 | 16.0 | 0.00 | 0.00 | 0.00 | 58 | 1014.1 |
| 20260508031518 | 68 | 360 | 14.0 | 18.0 | 0.00 | 0.00 | 0.00 | 58 | 1013.9 |
| 20260508030017 | 69 | 360 | 15.0 | 20.0 | 0.00 | 0.00 | 0.00 | 57 | 1013.8 |
| 20260508024531 | 69 | 360 | 12.0 | 22.0 | 0.00 | 0.00 | 0.00 | 56 | 1013.7 |
| 20260508023023 | 69 | 355 | 7.0 | 16.0 | 0.00 | 0.00 | 0.00 | 55 | 1013.3 |
| 20260508021515 | 69 | 171 | 7.0 | 13.0 | 0.00 | 0.00 | 0.00 | 55 | 1013.1 |
| 20260508020013 | 70 | 360 | 9.0 | 26.0 | 0.00 | 0.00 | 0.00 | 53 | 1012.8 |
| 20260508014512 | 70 | 196 | 17.0 | 28.0 | 0.00 | 0.00 | 0.00 | 52 | 1012.4 |
| 20260508013011 | 71 | 360 | 15.0 | 28.0 | 0.00 | 0.00 | 0.00 | 52 | 1012.4 |
| 20260508011510 | 72 | 360 | 17.0 | 29.0 | 0.00 | 0.00 | 0.00 | 49 | 1011.9 |
| 20260508010011 | 73 | 169 | 18.0 | 26.0 | 0.00 | 0.00 | 0.00 | 47 | 1011.8 |
| 20260508004507 | 75 | 179 | 14.0 | 27.0 | 0.00 | 0.00 | 0.00 | 45 | 1011.7 |
| 20260508003006 | 76 | 360 | 18.0 | 27.0 | 0.00 | 0.00 | 0.00 | 43 | 1011.5 |
| 20260508001506 | 77 | 132 | 16.0 | 25.0 | 0.00 | 0.00 | 0.00 | 42 | 1011.5 |
| 20260508000004 | 79 | 80 | 17.0 | 29.0 | 0.00 | 0.00 | 0.00 | 41 | 1011.4 |
| 20260507234503 | 80 | 142 | 15.0 | 28.0 | 0.00 | 0.00 | 0.00 | 39 | 1011.5 |
| 20260507233002 | 81 | 86 | 15.0 | 26.0 | 0.00 | 0.00 | 0.00 | 38 | 1011.3 |
| 20260507231501 | 82 | 116 | 15.0 | 28.0 | 0.00 | 0.00 | 0.00 | 37 | 1011.4 |
| 20260507230107 | 83 | 296 | 15.0 | 24.0 | 0.00 | 0.00 | 0.00 | 36 | 1011.3 |
| 20260507224600 | 85 | 103 | 14.0 | 20.0 | 0.00 | 0.00 | 0.00 | 33 | 1011.7 |
| 20260507223056 | 86 | 109 | 11.0 | 17.0 | 0.00 | 0.00 | 0.00 | 31 | 1011.7 |
| 20260507221554 | 85 | 140 | 10.0 | 19.0 | 0.00 | 0.00 | 0.00 | 34 | 1012.0 |
| 20260507220052 | 83 | 96 | 11.0 | 20.0 | 0.00 | 0.00 | 0.00 | 36 | 1012.2 |
| 20260507214602 | 87 | 142 | 3.0 | 14.0 | 0.00 | 0.00 | 0.00 | 32 | 1012.4 |
| 20260507213048 | 84 | 25 | 2.0 | 15.0 | 0.00 | 0.00 | 0.00 | 31 | 1012.6 |
| 20260507211549 | 87 | 167 | 8.0 | 15.0 | 0.00 | 0.00 | 0.00 | 31 | 1012.7 |
| 20260507210044 | 88 | 169 | 8.0 | 18.0 | 0.00 | 0.00 | 0.00 | 29 | 1013.2 |
| 20260507204542 | 86 | 193 | 9.0 | 17.0 | 0.00 | 0.00 | 0.00 | 25 | 1013.4 |
| 20260507203054 | 86 | 167 | 11.0 | 16.0 | 0.00 | 0.00 | 0.00 | 24 | 1013.7 |
| 20260507201546 | 86 | 167 | 10.0 | 15.0 | 0.00 | 0.00 | 0.00 | 24 | 1013.9 |
| 20260507200050 | 89 | 152 | 6.0 | 17.0 | 0.00 | 0.00 | 0.00 | 22 | 1014.1 |
| 20260507194534 | 86 | 227 | 4.0 | 15.0 | 0.00 | 0.00 | 0.00 | 26 | 1014.3 |
| 20260507193030 | 86 | 14 | 4.0 | 12.0 | 0.00 | 0.00 | 0.00 | 28 | 1014.6 |
| 20260507191529 | 89 | 161 | 3.0 | 11.0 | 0.00 | 0.00 | 0.00 | 26 | 1014.8 |
| 20260507190027 | 87 | 36 | 2.0 | 11.0 | 0.00 | 0.00 | 0.00 | 29 | 1014.9 |
| 20260507184523 | 83 | 198 | 9.0 | 17.0 | 0.00 | 0.00 | 0.00 | 32 | 1015.3 |
| 20260507183020 | 86 | 165 | 5.0 | 12.0 | 0.00 | 0.00 | 0.00 | 31 | 1015.6 |
| 20260507181524 | 81 | 311 | 2.0 | 13.0 | 0.00 | 0.00 | 0.00 | 35 | 1016.1 |
| 20260507180022 | 84 | 110 | 9.0 | 15.0 | 0.00 | 0.00 | 0.00 | 31 | 1016.5 |
| 20260507174514 | 82 | 106 | 5.0 | 13.0 | 0.00 | 0.00 | 0.00 | 32 | 1016.6 |
| 20260507173019 | 81 | 12 | 5.0 | 10.0 | 0.00 | 0.00 | 0.00 | 32 | 1016.9 |
| 20260507171509 | 80 | 117 | 5.0 | 13.0 | 0.00 | 0.00 | 0.00 | 31 | 1017.3 |
| 20260507170004 | 80 | 145 | 6.0 | 12.0 | 0.00 | 0.00 | 0.00 | 31 | 1017.6 |
| 20260507164604 | 78 | 360 | 8.0 | 15.0 | 0.00 | 0.00 | 0.00 | 32 | 1017.8 |
| 20260507163055 | 77 | 346 | 9.0 | 16.0 | 0.00 | 0.00 | 0.00 | 31 | 1017.9 |
| 20260507161551 | 77 | 350 | 9.0 | 16.0 | 0.00 | 0.00 | 0.00 | 30 | 1018.1 |
| 20260507160047 | 76 | 343 | 5.0 | 13.0 | 0.00 | 0.00 | 0.00 | 30 | 1018.3 |
| 20260507154550 | 75 | 360 | 8.0 | 17.0 | 0.00 | 0.00 | 0.00 | 29 | 1018.2 |
| 20260507153037 | 74 | 360 | 15.0 | 21.0 | 0.00 | 0.00 | 0.00 | 26 | 1018.1 |
| 20260507151534 | 73 | 360 | 10.0 | 18.0 | 0.00 | 0.00 | 0.00 | 27 | 1017.9 |
| 20260507150030 | 71 | 350 | 12.0 | 23.0 | 0.00 | 0.00 | 0.00 | 28 | 1017.9 |
| 20260507144529 | 71 | 360 | 15.0 | 20.0 | 0.00 | 0.00 | 0.00 | 27 | 1017.9 |
| 20260507143027 | 69 | 360 | 17.0 | 22.0 | 0.00 | 0.00 | 0.00 | 27 | 1018.1 |
| 20260507141515 | 69 | 360 | 13.0 | 20.0 | 0.00 | 0.00 | 0.00 | 28 | 1018.1 |
| 20260507140010 | 68 | 360 | 18.0 | 24.0 | 0.00 | 0.00 | 0.00 | 29 | 1018.0 |
| 20260507134510 | 68 | 345 | 16.0 | 22.0 | 0.00 | 0.00 | 0.00 | 28 | 1017.9 |
| 20260507133002 | 66 | 9 | 15.0 | 22.0 | 0.00 | 0.00 | 0.00 | 30 | 1017.8 |
| 20260507131600 | 65 | 355 | 14.0 | 18.0 | 0.00 | 0.00 | 0.00 | 33 | 1017.7 |
| 20260507130108 | 64 | 360 | 16.0 | 19.0 | 0.00 | 0.00 | 0.00 | 36 | 1017.4 |
| 20260507124552 | 63 | 327 | 13.0 | 19.0 | 0.00 | 0.00 | 0.00 | 38 | 1017.2 |
| 20260507123052 | 64 | 11 | 10.0 | 17.0 | 0.00 | 0.00 | 0.00 | 37 | 1017.3 |
| 20260507121601 | 64 | 340 | 11.0 | 17.0 | 0.00 | 0.00 | 0.00 | 37 | 1017.0 |
| 20260507120054 | 65 | 360 | 12.0 | 16.0 | 0.00 | 0.00 | 0.00 | 37 | 1016.9 |
| 20260507114621 | 65 | 360 | 13.0 | 17.0 | 0.00 | 0.00 | 0.00 | 37 | 1016.7 |
| 20260507113039 | 65 | 360 | 13.0 | 15.0 | 0.00 | 0.00 | 0.00 | 38 | 1016.8 |
| 20260507111537 | 65 | 339 | 10.0 | 13.0 | 0.00 | 0.00 | 0.00 | 38 | 1016.8 |
| 20260507110036 | 66 | 346 | 10.0 | 15.0 | 0.00 | 0.00 | 0.00 | 37 | 1016.7 |
| 20260507104534 | 66 | 360 | 11.0 | 17.0 | 0.00 | 0.00 | 0.00 | 37 | 1016.9 |
| 20260507103033 | 66 | 360 | 12.0 | 15.0 | 0.00 | 0.00 | 0.00 | 38 | 1016.7 |
| 20260507101532 | 66 | 360 | 13.0 | 17.0 | 0.00 | 0.00 | 0.00 | 37 | 1016.6 |
| 20260507100034 | 66 | 360 | 11.0 | 15.0 | 0.00 | 0.00 | 0.00 | 39 | 1016.6 |
| 20260507094530 | 66 | 360 | 10.0 | 14.0 | 0.00 | 0.00 | 0.00 | 38 | 1016.4 |
| 20260507093029 | 65 | 360 | 11.0 | 14.0 | 0.00 | 0.00 | 0.00 | 38 | 1016.3 |
| 20260507091531 | 66 | 360 | 14.0 | 18.0 | 0.00 | 0.00 | 0.00 | 33 | 1016.3 |
| 20260507090035 | 65 | 360 | 11.0 | 15.0 | 0.00 | 0.00 | 0.00 | 33 | 1016.5 |
| 20260507084527 | 65 | 360 | 14.0 | 17.0 | 0.00 | 0.00 | 0.00 | 31 | 1016.4 |
| 20260507083029 | 65 | 360 | 10.0 | 16.0 | 0.00 | 0.00 | 0.00 | 31 | 1016.6 |
| 20260507081522 | 65 | 360 | 13.0 | 16.0 | 0.00 | 0.00 | 0.00 | 29 | 1016.5 |
| 20260507080024 | 65 | 360 | 14.0 | 18.0 | 0.00 | 0.00 | 0.00 | 29 | 1016.6 |
| 20260507074520 | 65 | 360 | 13.0 | 17.0 | 0.00 | 0.00 | 0.00 | 28 | 1016.7 |
| 20260507073017 | 66 | 360 | 11.0 | 17.0 | 0.00 | 0.00 | 0.00 | 28 | 1016.8 |
| 20260507071515 | 67 | 360 | 10.0 | 15.0 | 0.00 | 0.00 | 0.00 | 28 | 1016.6 |
| 20260507070014 | 67 | 360 | 13.0 | 20.0 | 0.00 | 0.00 | 0.00 | 28 | 1016.5 |
| 20260507064510 | 67 | 360 | 6.0 | 14.0 | 0.00 | 0.00 | 0.00 | 28 | 1016.6 |
| 20260507063007 | 68 | 360 | 7.0 | 13.0 | 0.00 | 0.00 | 0.00 | 27 | 1016.5 |
| 20260507061506 | 68 | 360 | 7.0 | 13.0 | 0.00 | 0.00 | 0.00 | 26 | 1016.5 |
| 20260507060005 | 68 | 360 | 10.0 | 12.0 | 0.00 | 0.00 | 0.00 | 26 | 1016.2 |
| 20260507054508 | 68 | 360 | 8.0 | 11.0 | 0.00 | 0.00 | 0.00 | 27 | 1016.2 |
| 20260507053121 | 68 | 360 | 10.0 | 15.0 | 0.00 | 0.00 | 0.00 | 26 | 1016.1 |
| 20260507051604 | 69 | 360 | 11.0 | 16.0 | 0.00 | 0.00 | 0.00 | 25 | 1015.7 |
| 20260507050054 | 69 | 360 | 12.0 | 17.0 | 0.00 | 0.00 | 0.00 | 25 | 1015.7 |
| 20260507044553 | 70 | 360 | 10.0 | 15.0 | 0.00 | 0.00 | 0.00 | 24 | 1015.6 |
| 20260507043052 | 70 | 360 | 5.0 | 12.0 | 0.00 | 0.00 | 0.00 | 24 | 1015.5 |
| 20260507041553 | 70 | 360 | 4.0 | 8.0 | 0.00 | 0.00 | 0.00 | 24 | 1015.4 |
| 20260507040055 | 71 | 360 | 4.0 | 10.0 | 0.00 | 0.00 | 0.00 | 24 | 1015.4 |